Time;durP1;ratioP1;P1;durP2;ratioP2;P2;SDS_P1;SDS_P2;PMS_P1;PMS_P2;Temp;Humidity;BMP_temperature;BMP_pressure;BME280_temperature;BME280_humidity;BME280_pressure;Samples;Min_cycle;Max_cycle;Signal;HPM_P1;HPM_P2
2022/08/05 00:01:17;;;;;;;8.20;6.47;;;;;;;;;;4405520;32;20077;-69
2022/08/05 00:03:44;;;;;;;9.73;6.20;;;;;;;;;;4380528;32;20085;-67
2022/08/05 00:06:11;;;;;;;8.10;6.25;;;;;;;;;;4393022;32;20081;-69
2022/08/05 00:08:38;;;;;;;8.85;6.90;;;;;;;;;;4405773;32;20096;-68
2022/08/05 00:11:10;;;;;;;9.98;6.37;;;;;;;;;;4405959;32;20157;-68
2022/08/05 00:13:38;;;;;;;8.63;6.70;;;;;;;;;;4406116;32;20157;-68
2022/08/05 00:16:09;;;;;;;8.77;6.47;;;;;;;;;;4392882;32;20092;-68
2022/08/05 00:18:37;;;;;;;11.25;6.55;;;;;;;;;;4392857;32;20080;-67
2022/08/05 00:21:04;;;;;;;8.70;7.65;;;;;;;;;;4393002;32;20167;-69
2022/08/05 00:23:30;;;;;;;11.70;8.45;;;;;;;;;;4405442;32;20093;-68
2022/08/05 00:25:57;;;;;;;10.23;7.82;;;;;;;;;;4407075;32;20168;-68
2022/08/05 00:28:24;;;;;;;15.02;9.25;;;;;;;;;;4406733;32;20066;-68
2022/08/05 00:30:50;;;;;;;10.95;8.10;;;;;;;;;;4405316;32;20113;-68
2022/08/05 00:33:17;;;;;;;11.88;8.68;;;;;;;;;;4404940;32;20487;-68
2022/08/05 00:35:44;;;;;;;10.38;7.32;;;;;;;;;;4405279;32;20161;-68
2022/08/05 00:38:10;;;;;;;12.18;7.50;;;;;;;;;;4405288;32;20085;-68
2022/08/05 00:40:53;;;;;;;11.27;7.55;;;;;;;;;;4379884;32;20514;-69
2022/08/05 00:43:20;;;;;;;7.93;6.18;;;;;;;;;;4380250;32;20093;-68
2022/08/05 00:45:47;;;;;;;9.75;7.15;;;;;;;;;;4379973;32;20100;-69
2022/08/05 00:48:20;;;;;;;10.63;7.80;;;;;;;;;;4380162;32;20070;-68
2022/08/05 00:50:49;;;;;;;9.57;7.32;;;;;;;;;;4392528;32;20439;-68
2022/08/05 00:53:18;;;;;;;9.95;7.35;;;;;;;;;;4392515;32;20066;-68
2022/08/05 00:55:45;;;;;;;9.65;7.28;;;;;;;;;;4404921;32;20578;-69
2022/08/05 00:58:13;;;;;;;9.13;7.00;;;;;;;;;;4404880;32;20582;-68
2022/08/05 01:00:40;;;;;;;10.63;6.78;;;;;;;;;;4404731;32;20062;-69
2022/08/05 01:03:07;;;;;;;8.63;6.25;;;;;;;;;;4405201;32;20066;-68
2022/08/05 01:05:34;;;;;;;10.38;6.43;;;;;;;;;;4405194;32;20160;-68
2022/08/05 01:08:00;;;;;;;8.73;6.90;;;;;;;;;;4392344;32;20081;-68
2022/08/05 01:10:34;;;;;;;8.40;6.85;;;;;;;;;;4404784;32;20085;-69
2022/08/05 01:13:12;;;;;;;10.98;6.32;;;;;;;;;;4392830;32;20097;-69
2022/08/05 01:15:42;;;;;;;9.80;6.18;;;;;;;;;;4392695;32;20082;-68
2022/08/05 01:18:23;;;;;;;7.55;5.75;;;;;;;;;;4405283;32;20141;-68
2022/08/05 01:21:18;;;;;;;7.53;5.40;;;;;;;;;;4392154;32;20065;-68
2022/08/05 01:24:14;;;;;;;8.88;5.53;;;;;;;;;;4405287;32;20072;-69
2022/08/05 01:27:06;;;;;;;8.93;5.30;;;;;;;;;;4406576;32;20054;-69
2022/08/05 01:29:46;;;;;;;10.05;5.75;;;;;;;;;;4405031;32;20077;-70
2022/08/05 01:32:17;;;;;;;8.10;5.60;;;;;;;;;;4406377;32;20077;-68
2022/08/05 01:34:52;;;;;;;9.48;5.72;;;;;;;;;;4392315;32;20100;-69
2022/08/05 01:37:45;;;;;;;7.53;5.65;;;;;;;;;;4405540;32;20080;-68
2022/08/05 01:40:13;;;;;;;9.00;5.95;;;;;;;;;;4404658;32;20103;-67
2022/08/05 01:42:41;;;;;;;9.02;5.93;;;;;;;;;;4406428;32;20065;-68
2022/08/05 01:45:08;;;;;;;9.05;5.93;;;;;;;;;;4405102;32;20081;-68
2022/08/05 01:47:36;;;;;;;7.93;5.82;;;;;;;;;;4404885;32;20161;-68
2022/08/05 01:50:05;;;;;;;8.70;6.35;;;;;;;;;;4391985;32;20074;-69
2022/08/05 01:52:35;;;;;;;9.25;5.85;;;;;;;;;;4392030;32;20185;-68
2022/08/05 01:55:06;;;;;;;8.68;6.00;;;;;;;;;;4406059;32;20073;-69
2022/08/05 01:57:40;;;;;;;8.52;6.15;;;;;;;;;;4404688;32;20532;-69
2022/08/05 02:00:11;;;;;;;7.10;6.37;;;;;;;;;;4392184;32;20156;-68
2022/08/05 02:02:48;;;;;;;7.47;5.55;;;;;;;;;;4404505;32;20073;-68
2022/08/05 02:05:15;;;;;;;7.65;5.95;;;;;;;;;;4392254;32;20079;-68
2022/08/05 02:07:42;;;;;;;7.65;5.60;;;;;;;;;;4405246;32;20246;-68
2022/08/05 02:10:09;;;;;;;7.25;5.62;;;;;;;;;;4407188;32;20085;-66
2022/08/05 02:12:41;;;;;;;8.95;5.82;;;;;;;;;;4407470;32;20156;-68
2022/08/05 02:15:13;;;;;;;7.47;5.40;;;;;;;;;;4409301;32;20058;-69
2022/08/05 02:17:52;;;;;;;9.50;5.78;;;;;;;;;;4410804;32;20069;-69
2022/08/05 02:20:22;;;;;;;7.62;6.10;;;;;;;;;;4396784;32;20466;-69
2022/08/05 02:22:55;;;;;;;9.18;5.90;;;;;;;;;;4407732;32;20092;-67
2022/08/05 02:25:25;;;;;;;13.85;9.75;;;;;;;;;;4394428;32;20077;-68
2022/08/05 02:27:54;;;;;;;10.50;6.28;;;;;;;;;;4394511;32;20107;-70
2022/08/05 02:30:21;;;;;;;8.13;6.40;;;;;;;;;;4381842;32;20137;-68
2022/08/05 02:32:51;;;;;;;9.30;6.50;;;;;;;;;;4407163;32;20096;-67
2022/08/05 02:35:21;;;;;;;9.45;6.53;;;;;;;;;;4394648;32;20093;-68
2022/08/05 02:37:49;;;;;;;8.05;6.50;;;;;;;;;;4407300;32;20082;-68
2022/08/05 02:40:17;;;;;;;7.53;5.82;;;;;;;;;;4406868;32;20097;-69
2022/08/05 02:42:44;;;;;;;8.77;5.82;;;;;;;;;;4406531;32;20504;-69
2022/08/05 02:45:12;;;;;;;8.15;6.10;;;;;;;;;;4406894;32;20498;-69
2022/08/05 02:47:39;;;;;;;9.68;6.93;;;;;;;;;;4394406;32;20152;-68
2022/08/05 02:50:07;;;;;;;11.45;6.82;;;;;;;;;;4406752;32;20479;-68
2022/08/05 02:52:34;;;;;;;9.93;7.87;;;;;;;;;;4381632;32;20127;-68
2022/08/05 02:55:02;;;;;;;7.87;6.70;;;;;;;;;;4394861;32;20085;-69
2022/08/05 02:57:28;;;;;;;10.25;8.20;;;;;;;;;;4406805;32;20073;-68
2022/08/05 02:59:56;;;;;;;10.02;7.28;;;;;;;;;;4394256;32;20081;-69
2022/08/05 03:02:28;;;;;;;9.88;8.50;;;;;;;;;;4407089;32;20089;-69
2022/08/05 03:04:56;;;;;;;11.30;8.45;;;;;;;;;;4394662;32;20583;-69
2022/08/05 03:07:23;;;;;;;14.43;12.52;;;;;;;;;;4406899;32;20163;-68
2022/08/05 03:09:50;;;;;;;15.27;11.32;;;;;;;;;;4393726;32;20116;-69
2022/08/05 03:12:33;;;;;;;12.30;8.13;;;;;;;;;;4406290;32;20475;-68
2022/08/05 03:15:00;;;;;;;10.63;8.85;;;;;;;;;;4406476;32;20077;-68
2022/08/05 03:17:27;;;;;;;11.02;7.53;;;;;;;;;;4406305;32;20131;-69
2022/08/05 03:19:53;;;;;;;10.68;7.87;;;;;;;;;;4406860;32;20140;-68
2022/08/05 03:22:20;;;;;;;12.55;8.02;;;;;;;;;;4407486;32;20627;-68
2022/08/05 03:24:47;;;;;;;11.63;8.77;;;;;;;;;;4406743;32;20161;-69
2022/08/05 03:27:14;;;;;;;12.32;7.93;;;;;;;;;;4381159;32;20252;-69
2022/08/05 03:29:41;;;;;;;11.27;7.20;;;;;;;;;;4406320;32;20088;-68
2022/08/05 03:32:08;;;;;;;14.52;7.82;;;;;;;;;;4406412;32;20096;-69
2022/08/05 03:34:36;;;;;;;11.30;7.07;;;;;;;;;;4406098;32;20153;-69
2022/08/05 03:37:04;;;;;;;10.75;6.55;;;;;;;;;;4394220;32;20181;-69
2022/08/05 03:39:31;;;;;;;9.88;6.15;;;;;;;;;;4406186;32;20077;-69
2022/08/05 03:41:58;;;;;;;9.88;6.68;;;;;;;;;;4406212;32;20084;-67
2022/08/05 03:44:25;;;;;;;9.40;7.87;;;;;;;;;;4406272;32;20085;-68
2022/08/05 03:46:52;;;;;;;14.05;8.00;;;;;;;;;;4405856;32;20097;-69
2022/08/05 03:49:18;;;;;;;12.45;8.70;;;;;;;;;;4407414;32;20176;-69
2022/08/05 03:52:00;;;;;;;11.90;8.15;;;;;;;;;;4406190;32;20081;-67
2022/08/05 03:54:29;;;;;;;11.30;7.57;;;;;;;;;;4405803;32;20542;-68
2022/08/05 03:56:56;;;;;;;11.48;7.45;;;;;;;;;;4405761;32;20073;-68
2022/08/05 03:59:32;;;;;;;15.23;7.22;;;;;;;;;;4405546;32;20177;-67
2022/08/05 04:02:00;;;;;;;10.75;7.18;;;;;;;;;;4405533;32;20088;-67
2022/08/05 04:04:27;;;;;;;15.10;7.15;;;;;;;;;;4393062;32;20570;-69
2022/08/05 04:06:53;;;;;;;8.68;7.18;;;;;;;;;;4407118;32;20081;-70
2022/08/05 04:09:20;;;;;;;16.70;8.88;;;;;;;;;;4393138;32;20165;-69
2022/08/05 04:11:47;;;;;;;11.60;8.85;;;;;;;;;;4405243;32;20118;-68
2022/08/05 04:14:14;;;;;;;13.70;8.77;;;;;;;;;;4392722;32;20515;-69
2022/08/05 04:16:41;;;;;;;17.12;9.85;;;;;;;;;;4407307;32;20078;-68
2022/08/05 04:19:11;;;;;;;12.02;9.55;;;;;;;;;;4393537;32;20073;-68
2022/08/05 04:21:39;;;;;;;12.98;8.20;;;;;;;;;;4392809;32;20074;-69
2022/08/05 04:24:06;;;;;;;14.95;10.18;;;;;;;;;;4406019;32;20421;-68
2022/08/05 04:26:32;;;;;;;14.23;9.18;;;;;;;;;;4405427;32;20140;-69
2022/08/05 04:29:00;;;;;;;17.42;10.40;;;;;;;;;;4392731;32;20152;-68
2022/08/05 04:31:26;;;;;;;16.50;9.70;;;;;;;;;;4405388;32;20112;-69
2022/08/05 04:33:53;;;;;;;17.17;9.60;;;;;;;;;;4405235;32;20458;-69
2022/08/05 04:36:20;;;;;;;21.30;10.48;;;;;;;;;;4380203;32;20089;-68
2022/08/05 04:38:46;;;;;;;23.90;11.57;;;;;;;;;;4392791;32;20073;-68
2022/08/05 04:41:13;;;;;;;23.95;11.20;;;;;;;;;;4405459;32;20079;-68
2022/08/05 04:43:40;;;;;;;19.60;11.40;;;;;;;;;;4404993;32;20068;-69
2022/08/05 04:46:06;;;;;;;18.65;11.30;;;;;;;;;;4405153;32;20069;-68
2022/08/05 04:48:33;;;;;;;17.15;12.05;;;;;;;;;;4406519;32;20160;-68
2022/08/05 04:51:00;;;;;;;21.17;11.98;;;;;;;;;;4405295;32;20507;-68
2022/08/05 04:53:27;;;;;;;22.98;12.90;;;;;;;;;;4408049;32;20495;-69
2022/08/05 04:55:54;;;;;;;19.12;12.32;;;;;;;;;;4406249;32;20094;-69
2022/08/05 04:58:21;;;;;;;21.25;12.50;;;;;;;;;;4392879;32;20160;-68
2022/08/05 05:00:47;;;;;;;20.92;13.30;;;;;;;;;;4392511;32;20157;-69
2022/08/05 05:03:14;;;;;;;19.58;11.38;;;;;;;;;;4406517;32;20080;-69
2022/08/05 05:05:41;;;;;;;18.40;12.95;;;;;;;;;;4406349;32;20157;-68
2022/08/05 05:08:10;;;;;;;15.60;11.48;;;;;;;;;;4406293;32;20073;-67
2022/08/05 05:10:44;;;;;;;24.45;14.73;;;;;;;;;;4406044;32;20506;-68
2022/08/05 05:13:12;;;;;;;17.80;12.00;;;;;;;;;;4405301;32;20514;-67
2022/08/05 05:15:40;;;;;;;18.80;11.82;;;;;;;;;;4392420;32;20099;-69
2022/08/05 05:18:07;;;;;;;15.73;11.73;;;;;;;;;;4405029;32;20234;-68
2022/08/05 05:20:34;;;;;;;15.02;11.27;;;;;;;;;;4404835;32;20100;-68
2022/08/05 05:23:05;;;;;;;15.93;11.18;;;;;;;;;;4392012;32;20140;-69
2022/08/05 05:25:32;;;;;;;26.02;14.35;;;;;;;;;;4404709;32;20500;-68
2022/08/05 05:27:58;;;;;;;22.27;14.30;;;;;;;;;;4406227;32;20077;-69
2022/08/05 05:30:25;;;;;;;23.62;13.18;;;;;;;;;;4404883;32;20508;-69
2022/08/05 05:32:52;;;;;;;23.95;13.70;;;;;;;;;;4406449;32;20080;-68
2022/08/05 05:35:21;;;;;;;25.17;14.90;;;;;;;;;;4404821;32;20515;-68
2022/08/05 05:37:51;;;;;;;16.35;11.88;;;;;;;;;;4406049;32;20579;-69
2022/08/05 05:40:20;;;;;;;28.42;13.23;;;;;;;;;;4405359;32;20074;-68
2022/08/05 05:42:47;;;;;;;19.90;12.02;;;;;;;;;;4405169;32;20085;-68
2022/08/05 05:45:13;;;;;;;16.73;10.95;;;;;;;;;;4394898;32;20603;-69
2022/08/05 05:47:41;;;;;;;21.30;12.27;;;;;;;;;;4407748;32;20175;-68
2022/08/05 05:50:09;;;;;;;16.25;12.77;;;;;;;;;;4408045;32;20141;-69
2022/08/05 05:52:36;;;;;;;24.40;14.90;;;;;;;;;;4395792;32;20160;-68
2022/08/05 05:55:04;;;;;;;18.08;12.35;;;;;;;;;;4407788;32;20161;-69
2022/08/05 05:57:31;;;;;;;19.95;12.68;;;;;;;;;;4407684;32;20070;-69
2022/08/05 05:59:58;;;;;;;18.75;11.38;;;;;;;;;;4407487;32;20109;-69
2022/08/05 06:02:24;;;;;;;18.62;11.95;;;;;;;;;;4408671;32;20543;-69
2022/08/05 06:04:51;;;;;;;19.77;12.05;;;;;;;;;;4407282;32;20077;-68
2022/08/05 06:07:18;;;;;;;17.73;11.20;;;;;;;;;;4407775;32;20081;-68
2022/08/05 06:09:44;;;;;;;16.45;10.65;;;;;;;;;;4408580;32;20149;-68
2022/08/05 06:12:11;;;;;;;22.25;12.63;;;;;;;;;;4407705;32;20104;-69
2022/08/05 06:14:38;;;;;;;20.58;13.48;;;;;;;;;;4394650;32;20103;-68
2022/08/05 06:17:04;;;;;;;21.52;16.02;;;;;;;;;;4406898;32;20069;-69
2022/08/05 06:19:31;;;;;;;20.12;12.82;;;;;;;;;;4408768;32;20105;-69
2022/08/05 06:21:58;;;;;;;20.10;12.48;;;;;;;;;;4407210;32;20073;-68
2022/08/05 06:24:24;;;;;;;21.80;14.55;;;;;;;;;;4394997;32;20073;-68
2022/08/05 06:26:51;;;;;;;19.48;14.80;;;;;;;;;;4407551;32;20073;-68
2022/08/05 06:29:18;;;;;;;21.25;14.95;;;;;;;;;;4406823;32;20074;-68
2022/08/05 06:31:45;;;;;;;23.27;14.82;;;;;;;;;;4394746;32;20085;-69
2022/08/05 06:34:12;;;;;;;23.17;16.08;;;;;;;;;;4381931;32;20503;-67
2022/08/05 06:36:38;;;;;;;24.10;16.20;;;;;;;;;;4408775;32;20146;-68
2022/08/05 06:39:05;;;;;;;23.98;15.07;;;;;;;;;;4408500;32;20149;-66
2022/08/05 06:41:31;;;;;;;25.67;14.65;;;;;;;;;;4407217;32;20172;-67
2022/08/05 06:43:58;;;;;;;23.38;16.90;;;;;;;;;;4394194;32;20161;-66
2022/08/05 06:46:25;;;;;;;26.12;16.42;;;;;;;;;;4406868;32;20096;-66
2022/08/05 06:48:52;;;;;;;26.85;17.48;;;;;;;;;;4407175;32;20076;-68
2022/08/05 06:51:18;;;;;;;19.60;13.73;;;;;;;;;;4408680;32;20089;-67
2022/08/05 06:53:45;;;;;;;26.48;15.80;;;;;;;;;;4394297;32;20092;-66
2022/08/05 06:56:11;;;;;;;35.92;22.27;;;;;;;;;;4408368;32;20089;-68
2022/08/05 06:58:38;;;;;;;23.98;15.65;;;;;;;;;;4394137;32;20097;-69
2022/08/05 07:01:05;;;;;;;38.63;21.00;;;;;;;;;;4406772;32;20073;-68
2022/08/05 07:03:33;;;;;;;34.30;22.40;;;;;;;;;;4381436;32;20443;-65
2022/08/05 07:06:01;;;;;;;35.58;20.90;;;;;;;;;;4393768;32;20169;-64
2022/08/05 07:08:27;;;;;;;37.13;19.73;;;;;;;;;;4393685;32;20537;-65
2022/08/05 07:10:54;;;;;;;36.20;19.98;;;;;;;;;;4393402;32;20097;-65
2022/08/05 07:18:55;;;;;;;33.77;18.17;;;;;;;;;;4406853;32;20508;-64
2022/08/05 07:21:22;;;;;;;24.80;16.42;;;;;;;;;;4406079;32;20519;-65
2022/08/05 07:23:49;;;;;;;25.65;15.82;;;;;;;;;;4407851;32;20161;-65
2022/08/05 07:26:15;;;;;;;27.35;16.45;;;;;;;;;;4406430;32;20081;-67
2022/08/05 07:28:42;;;;;;;20.33;12.13;;;;;;;;;;4406017;32;20579;-67
2022/08/05 07:31:09;;;;;;;17.40;11.95;;;;;;;;;;4407372;32;20553;-65
2022/08/05 07:33:35;;;;;;;24.45;14.87;;;;;;;;;;4405945;32;20162;-66
2022/08/05 07:36:02;;;;;;;27.73;14.38;;;;;;;;;;4406164;32;20081;-68
2022/08/05 07:38:29;;;;;;;22.08;12.27;;;;;;;;;;4405987;32;20078;-66
2022/08/05 07:40:55;;;;;;;23.90;14.50;;;;;;;;;;4406001;32;20157;-65
2022/08/05 07:43:22;;;;;;;23.17;14.23;;;;;;;;;;4405715;32;20765;-66
2022/08/05 07:45:49;;;;;;;25.77;13.65;;;;;;;;;;4406251;32;20076;-65
2022/08/05 07:48:15;;;;;;;22.85;13.73;;;;;;;;;;4407229;32;20175;-66
2022/08/05 07:50:42;;;;;;;22.67;14.10;;;;;;;;;;4407599;32;20195;-66
2022/08/05 07:53:09;;;;;;;20.15;12.63;;;;;;;;;;4405955;32;20077;-66
2022/08/05 07:55:36;;;;;;;19.02;9.70;;;;;;;;;;4407220;32;20086;-66
2022/08/05 07:58:02;;;;;;;14.25;9.38;;;;;;;;;;4405515;32;20085;-67
2022/08/05 08:00:29;;;;;;;10.82;8.07;;;;;;;;;;4407111;32;20073;-68
2022/08/05 08:02:56;;;;;;;15.77;10.68;;;;;;;;;;4405201;32;20089;-66
2022/08/05 08:05:22;;;;;;;25.33;16.05;;;;;;;;;;4405271;32;20128;-67
2022/08/05 08:07:49;;;;;;;18.67;13.05;;;;;;;;;;4405090;32;20073;-66
2022/08/05 08:10:15;;;;;;;22.52;13.52;;;;;;;;;;4407108;32;20073;-65
2022/08/05 08:12:42;;;;;;;17.00;10.63;;;;;;;;;;4405031;32;20519;-66
2022/08/05 08:15:10;;;;;;;15.43;9.88;;;;;;;;;;4405379;32;20582;-64
2022/08/05 08:17:37;;;;;;;17.55;10.35;;;;;;;;;;4392522;32;20573;-64
2022/08/05 08:20:05;;;;;;;12.85;9.05;;;;;;;;;;4392992;32;20082;-66
2022/08/05 08:22:32;;;;;;;15.23;9.00;;;;;;;;;;4405473;32;20082;-65
2022/08/05 08:24:59;;;;;;;14.90;8.95;;;;;;;;;;4405443;32;20069;-66
2022/08/05 08:27:26;;;;;;;14.35;9.80;;;;;;;;;;4405693;32;20146;-66
2022/08/05 08:29:52;;;;;;;13.43;8.38;;;;;;;;;;4380626;32;20092;-66
2022/08/05 08:32:19;;;;;;;11.68;7.80;;;;;;;;;;4406601;32;20532;-66
2022/08/05 08:34:46;;;;;;;12.55;7.55;;;;;;;;;;4405038;32;20069;-67
2022/08/05 08:37:13;;;;;;;11.02;7.30;;;;;;;;;;4393188;32;20159;-66
2022/08/05 08:39:39;;;;;;;12.88;8.07;;;;;;;;;;4379953;32;20057;-67
2022/08/05 08:42:08;;;;;;;17.00;12.18;;;;;;;;;;4405175;32;20462;-66
2022/08/05 08:44:36;;;;;;;18.23;12.63;;;;;;;;;;4405125;32;20077;-66
2022/08/05 08:47:03;;;;;;;19.05;12.93;;;;;;;;;;4405842;32;20185;-66
2022/08/05 08:49:33;;;;;;;18.80;12.98;;;;;;;;;;4392528;32;20076;-65
2022/08/05 08:52:11;;;;;;;20.85;13.52;;;;;;;;;;4392462;32;20062;-66
2022/08/05 08:54:38;;;;;;;18.60;13.48;;;;;;;;;;4405525;32;20081;-67
2022/08/05 08:57:06;;;;;;;18.55;12.55;;;;;;;;;;4406368;32;20080;-64
2022/08/05 08:59:34;;;;;;;19.02;12.20;;;;;;;;;;4392450;32;20182;-65
2022/08/05 09:02:03;;;;;;;20.00;12.63;;;;;;;;;;4404750;32;20169;-65
2022/08/05 09:04:32;;;;;;;17.02;11.75;;;;;;;;;;4392718;32;20073;-66
2022/08/05 09:06:59;;;;;;;17.62;13.70;;;;;;;;;;4404797;32;20085;-65
2022/08/05 09:09:26;;;;;;;19.75;11.77;;;;;;;;;;4406444;32;20571;-64
2022/08/05 09:11:52;;;;;;;17.60;11.75;;;;;;;;;;4405094;32;20101;-65
2022/08/05 09:14:20;;;;;;;15.38;10.20;;;;;;;;;;4392661;32;20066;-66
2022/08/05 09:16:46;;;;;;;16.27;10.50;;;;;;;;;;4392322;32;20157;-65
2022/08/05 09:19:13;;;;;;;13.65;8.48;;;;;;;;;;4407959;32;20091;-66
2022/08/05 09:21:40;;;;;;;9.60;6.62;;;;;;;;;;4408104;32;20085;-65
2022/08/05 09:24:08;;;;;;;8.23;5.20;;;;;;;;;;4407990;32;20109;-65
2022/08/05 09:26:38;;;;;;;8.20;4.95;;;;;;;;;;4395413;32;20150;-64
2022/08/05 09:29:06;;;;;;;6.55;4.05;;;;;;;;;;4395802;32;20092;-65
2022/08/05 09:31:34;;;;;;;5.65;3.78;;;;;;;;;;4408267;32;20105;-67
2022/08/05 09:34:04;;;;;;;4.30;3.00;;;;;;;;;;4407936;32;20213;-67
2022/08/05 09:36:48;;;;;;;5.57;3.00;;;;;;;;;;4397355;32;20089;-67
2022/08/05 09:39:16;;;;;;;5.93;3.12;;;;;;;;;;4410072;32;20454;-67
2022/08/05 09:41:55;;;;;;;3.55;2.80;;;;;;;;;;4383048;32;20153;-67
2022/08/05 09:44:40;;;;;;;6.97;3.50;;;;;;;;;;4407997;32;20108;-66
2022/08/05 09:47:12;;;;;;;4.07;3.05;;;;;;;;;;4409034;32;20511;-66
2022/08/05 09:50:08;;;;;;;5.70;3.10;;;;;;;;;;4382467;32;20073;-67
2022/08/05 09:52:36;;;;;;;6.53;4.55;;;;;;;;;;4379428;32;20081;-66
2022/08/05 09:55:09;;;;;;;4.28;3.40;;;;;;;;;;4395106;32;20096;-66
2022/08/05 09:57:42;;;;;;;5.78;3.92;;;;;;;;;;4395271;32;20081;-67
2022/08/05 10:00:17;;;;;;;5.03;3.67;;;;;;;;;;4394932;32;20119;-66
2022/08/05 10:02:46;;;;;;;7.40;4.22;;;;;;;;;;4382620;32;20158;-66
2022/08/05 10:05:16;;;;;;;6.05;3.90;;;;;;;;;;4394814;32;20088;-67
2022/08/05 10:07:58;;;;;;;4.37;3.50;;;;;;;;;;4407754;32;20089;-66
2022/08/05 10:10:31;;;;;;;5.28;3.35;;;;;;;;;;4407006;32;20077;-67
2022/08/05 10:13:00;;;;;;;4.80;3.10;;;;;;;;;;4409178;32;20077;-66
2022/08/05 10:15:28;;;;;;;3.67;2.33;;;;;;;;;;4394923;32;20075;-65
2022/08/05 10:18:09;;;;;;;2.97;2.50;;;;;;;;;;4407203;32;20074;-67
2022/08/05 10:20:43;;;;;;;3.95;2.50;;;;;;;;;;4407277;32;20100;-66
2022/08/05 10:23:18;;;;;;;4.60;2.70;;;;;;;;;;4407191;32;20065;-66
2022/08/05 10:25:45;;;;;;;4.90;2.67;;;;;;;;;;4394924;32;20097;-67
2022/08/05 10:28:11;;;;;;;5.15;2.95;;;;;;;;;;4408665;32;20092;-66
2022/08/05 10:30:39;;;;;;;6.22;2.97;;;;;;;;;;4406384;32;20536;-66
2022/08/05 10:33:07;;;;;;;3.72;3.10;;;;;;;;;;4407121;32;20185;-66
2022/08/05 10:35:34;;;;;;;4.47;3.22;;;;;;;;;;4394352;32;20510;-65
2022/08/05 10:38:01;;;;;;;5.53;3.50;;;;;;;;;;4406862;32;20104;-66
2022/08/05 10:40:31;;;;;;;4.82;4.00;;;;;;;;;;4407449;32;20495;-67
2022/08/05 10:43:35;;;;;;;5.90;3.12;;;;;;;;;;4406999;32;20073;-66
2022/08/05 10:46:05;;;;;;;4.37;3.55;;;;;;;;;;4408183;32;20097;-67
2022/08/05 10:48:37;;;;;;;5.32;3.20;;;;;;;;;;4394400;32;20078;-66
2022/08/05 10:51:07;;;;;;;4.68;3.28;;;;;;;;;;4407200;32;20073;-66
2022/08/05 10:53:37;;;;;;;4.28;3.30;;;;;;;;;;4382168;32;20074;-66
2022/08/05 10:56:16;;;;;;;6.78;3.87;;;;;;;;;;4408043;32;20090;-67
2022/08/05 10:58:53;;;;;;;4.57;3.50;;;;;;;;;;4408889;32;20088;-66
2022/08/05 11:01:34;;;;;;;5.07;3.17;;;;;;;;;;4406636;32;20084;-66
2022/08/05 11:04:10;;;;;;;5.03;3.20;;;;;;;;;;4393931;32;20085;-66
2022/08/05 11:06:57;;;;;;;6.93;3.80;;;;;;;;;;4406769;32;20069;-67
2022/08/05 11:09:45;;;;;;;5.50;3.22;;;;;;;;;;4407248;32;20085;-65
2022/08/05 11:12:30;;;;;;;4.40;3.20;;;;;;;;;;4394597;32;20096;-66
2022/08/05 11:15:21;;;;;;;5.50;3.78;;;;;;;;;;4406724;32;20065;-68
2022/08/05 11:18:22;;;;;;;5.32;3.80;;;;;;;;;;4382386;32;20105;-66
2022/08/05 11:20:52;;;;;;;4.40;3.65;;;;;;;;;;4393849;32;20190;-66
2022/08/05 11:23:34;;;;;;;4.87;3.70;;;;;;;;;;4406603;32;20097;-67
2022/08/05 11:26:12;;;;;;;5.75;3.85;;;;;;;;;;4408238;32;20141;-66
2022/08/05 11:28:42;;;;;;;6.03;4.10;;;;;;;;;;4406553;32;20077;-66
2022/08/05 11:31:12;;;;;;;5.87;4.15;;;;;;;;;;4394248;32;20072;-67
2022/08/05 11:33:42;;;;;;;4.90;3.70;;;;;;;;;;4407629;32;20500;-67
2022/08/05 11:36:10;;;;;;;5.68;3.60;;;;;;;;;;4408139;32;20069;-66
2022/08/05 11:38:43;;;;;;;7.47;3.62;;;;;;;;;;4406341;32;20092;-67
2022/08/05 11:41:17;;;;;;;5.62;3.80;;;;;;;;;;4405976;32;20073;-66
2022/08/05 11:44:05;;;;;;;4.87;3.90;;;;;;;;;;4380681;32;20072;-67
2022/08/05 11:46:32;;;;;;;5.18;3.65;;;;;;;;;;4407880;32;20058;-66
2022/08/05 11:49:00;;;;;;;5.85;4.05;;;;;;;;;;4406423;32;20087;-68
2022/08/05 11:51:28;;;;;;;8.05;4.00;;;;;;;;;;4406325;32;20078;-66
2022/08/05 11:53:55;;;;;;;5.90;3.60;;;;;;;;;;4406374;32;20101;-66
2022/08/05 11:56:22;;;;;;;6.57;4.18;;;;;;;;;;4407126;32;20080;-67
2022/08/05 11:58:50;;;;;;;5.97;3.67;;;;;;;;;;4405777;32;20097;-67
2022/08/05 12:01:18;;;;;;;5.35;3.75;;;;;;;;;;4393870;32;20069;-66
2022/08/05 12:03:53;;;;;;;5.75;4.25;;;;;;;;;;4405661;32;20584;-66
2022/08/05 12:06:29;;;;;;;4.47;3.57;;;;;;;;;;4406389;32;20077;-67
2022/08/05 12:08:57;;;;;;;4.75;3.35;;;;;;;;;;4406284;32;20200;-67
2022/08/05 12:11:26;;;;;;;8.32;3.53;;;;;;;;;;4405209;32;20105;-67
2022/08/05 12:13:57;;;;;;;6.10;3.62;;;;;;;;;;4406251;32;20093;-67
2022/08/05 12:19:06;;;;;;;6.90;3.50;;;;;;;;;;3857295;37;20443;-66
2022/08/05 12:21:35;;;;;;;7.12;3.65;;;;;;;;;;4406415;32;20065;-67
2022/08/05 12:24:07;;;;;;;4.78;3.20;;;;;;;;;;4406057;32;20133;-67
2022/08/05 12:29:16;;;;;;;5.40;3.60;;;;;;;;;;3857589;37;20058;-66
2022/08/05 12:31:56;;;;;;;4.78;3.35;;;;;;;;;;4419272;32;20082;-66
2022/08/05 12:34:29;;;;;;;4.57;3.20;;;;;;;;;;4405704;32;20165;-67
2022/08/05 12:36:59;;;;;;;7.22;3.65;;;;;;;;;;4418812;32;20070;-66
2022/08/05 12:39:26;;;;;;;4.68;3.60;;;;;;;;;;4419360;32;20491;-67
2022/08/05 12:41:58;;;;;;;3.58;3.10;;;;;;;;;;4418192;32;20104;-67
2022/08/05 12:44:25;;;;;;;6.35;3.45;;;;;;;;;;4405994;32;20076;-67
2022/08/05 12:46:55;;;;;;;4.43;3.53;;;;;;;;;;4418452;32;20518;-67
2022/08/05 12:49:22;;;;;;;4.55;3.30;;;;;;;;;;4418162;32;20078;-67
2022/08/05 12:51:59;;;;;;;4.40;3.12;;;;;;;;;;4418102;32;20524;-67
2022/08/05 12:54:30;;;;;;;5.10;3.78;;;;;;;;;;4418649;32;20072;-67
2022/08/05 12:56:57;;;;;;;5.57;3.60;;;;;;;;;;4418009;32;20073;-65
2022/08/05 12:59:29;;;;;;;5.75;3.45;;;;;;;;;;4405900;32;20105;-67
2022/08/05 13:01:58;;;;;;;6.97;3.58;;;;;;;;;;4418590;32;20069;-66
2022/08/05 13:04:36;;;;;;;4.85;3.60;;;;;;;;;;4417973;32;20095;-67
2022/08/05 13:07:06;;;;;;;4.50;3.20;;;;;;;;;;4417593;32;20598;-67
2022/08/05 13:09:33;;;;;;;6.72;3.50;;;;;;;;;;4405078;32;20153;-68
2022/08/05 13:12:06;;;;;;;4.03;3.15;;;;;;;;;;4418062;32;20145;-67
2022/08/05 13:14:41;;;;;;;4.03;3.50;;;;;;;;;;4405032;32;20530;-66
2022/08/05 13:17:09;;;;;;;5.20;3.17;;;;;;;;;;4419596;32;20074;-67
2022/08/05 13:19:37;;;;;;;6.18;3.53;;;;;;;;;;4417605;32;20073;-67
2022/08/05 13:22:04;;;;;;;4.50;3.58;;;;;;;;;;4405061;32;20081;-67
2022/08/05 13:24:30;;;;;;;5.62;3.80;;;;;;;;;;4418289;32;20101;-68
2022/08/05 13:26:57;;;;;;;5.22;3.58;;;;;;;;;;4404601;32;20159;-66
2022/08/05 13:29:24;;;;;;;4.12;3.17;;;;;;;;;;4417916;32;20096;-67
2022/08/05 13:31:51;;;;;;;5.70;3.35;;;;;;;;;;4419455;32;20431;-67
2022/08/05 13:34:17;;;;;;;3.80;3.10;;;;;;;;;;4417593;32;20089;-66
2022/08/05 13:36:44;;;;;;;4.65;3.12;;;;;;;;;;4417766;32;20153;-67
2022/08/05 13:39:12;;;;;;;5.35;3.28;;;;;;;;;;4413303;32;20092;-67
2022/08/05 13:41:39;;;;;;;4.62;3.10;;;;;;;;;;4394338;32;20088;-67
2022/08/05 13:44:06;;;;;;;4.07;2.95;;;;;;;;;;4394552;32;20467;-67
2022/08/05 13:46:33;;;;;;;6.97;3.33;;;;;;;;;;4408486;32;20536;-65
2022/08/05 13:49:00;;;;;;;4.72;3.58;;;;;;;;;;4407328;32;20571;-67
2022/08/05 13:51:31;;;;;;;5.22;3.25;;;;;;;;;;4406885;32;20073;-67
2022/08/05 13:53:58;;;;;;;5.82;3.37;;;;;;;;;;4408386;32;20078;-66
2022/08/05 13:56:25;;;;;;;4.10;3.10;;;;;;;;;;4406749;32;20446;-66
2022/08/05 13:58:51;;;;;;;4.47;3.20;;;;;;;;;;4407419;32;20073;-66
2022/08/05 14:01:18;;;;;;;5.55;3.30;;;;;;;;;;4406794;32;20084;-67
2022/08/05 14:05:09;;;;;;;5.47;3.20;;;;;;;;;;4394356;32;20068;-67
2022/08/05 14:06:32;;;;;;;5.75;3.20;;;;;;;;;;4407776;32;20065;-67
2022/08/05 14:08:59;;;;;;;5.87;3.40;;;;;;;;;;4381438;32;20158;-66
2022/08/05 14:11:26;;;;;;;5.43;3.47;;;;;;;;;;4393817;32;20460;-67
2022/08/05 14:13:52;;;;;;;5.20;3.65;;;;;;;;;;4406823;32;20105;-67
2022/08/05 14:16:19;;;;;;;5.07;3.25;;;;;;;;;;4394235;32;20070;-67
2022/08/05 14:18:46;;;;;;;6.60;3.67;;;;;;;;;;4408685;32;20068;-67
2022/08/05 14:21:12;;;;;;;4.32;3.50;;;;;;;;;;4394473;32;20069;-67
2022/08/05 14:23:39;;;;;;;4.18;3.20;;;;;;;;;;4408251;32;20511;-68
2022/08/05 14:26:06;;;;;;;4.70;3.20;;;;;;;;;;4406923;32;20491;-66
2022/08/05 14:28:32;;;;;;;4.20;3.40;;;;;;;;;;4406431;32;20084;-67
2022/08/05 14:31:00;;;;;;;4.53;3.08;;;;;;;;;;4406385;32;20550;-67
2022/08/05 14:33:26;;;;;;;5.70;3.55;;;;;;;;;;4407897;32;20149;-67
2022/08/05 14:35:53;;;;;;;4.50;3.40;;;;;;;;;;4406515;32;20070;-66
2022/08/05 14:38:20;;;;;;;5.10;3.35;;;;;;;;;;4407213;32;20081;-67
2022/08/05 14:40:46;;;;;;;5.43;3.67;;;;;;;;;;4407624;32;20479;-66
2022/08/05 14:43:13;;;;;;;5.53;3.60;;;;;;;;;;4407448;32;20104;-66
2022/08/05 14:45:40;;;;;;;3.67;3.33;;;;;;;;;;4406332;32;20246;-66
2022/08/05 14:48:06;;;;;;;4.57;3.40;;;;;;;;;;4405874;32;20523;-67
2022/08/05 14:50:34;;;;;;;7.15;3.40;;;;;;;;;;4405851;32;20182;-66
2022/08/05 14:53:00;;;;;;;6.40;3.55;;;;;;;;;;4407490;32;20077;-66
2022/08/05 14:55:27;;;;;;;5.15;3.45;;;;;;;;;;4406285;32;20085;-67
2022/08/05 14:57:54;;;;;;;5.87;3.53;;;;;;;;;;4407541;32;20511;-67